• Join FlightAware (Why Join?)
  • Login
  • US Flag 
01:41PM EDT


 

Airport Tracker/Info


-or-


 

Live Flight TrackerFlight Track Log ✈ WBR2634 ✈ 23-Jul-2013 ✈ KBRL - KORD

Flight Track Log - Related Links

Times and Time Zones

All times are in EDT time to prevent confusion due to time zone crossing. See the WBR2634 flight status page for this flight to view local times or setup timezone preferences in your user account.

Time Position Orientation Groundspeed Altitude Reporting Facility
EDT Latitude Longitude Course Direction KTS MPH feet Rate Location/Type
09:31PM 40.8175 -91.1100 65° Northeast 81 93 2,600  Level Chicago Center
09:32PM 40.8250 -91.0756 74° East 96 110 3,600 900 Climbing Chicago Center
09:33PM 40.8610 -90.7780 57° Northeast  Level FlightAware Approximate
09:33PM 40.8356 -91.0403 68° East 100 115 4,500  Level Chicago Center
09:34PM 40.9054 -90.7450 72° East  Level FlightAware Approximate
09:34PM 40.8517 -90.9950 65° Northeast 110 127 5,400  Level Chicago Center
09:35PM 40.9207 -90.6884 65° Northeast  Level FlightAware Approximate
09:35PM 40.8656 -90.9556 65° Northeast 116 133 6,100  Level Chicago Center
09:36PM 40.9396 -90.6336 65° Northeast  Level FlightAware Approximate
09:36PM 40.8797 -90.9131 66° East 124 143 6,900  Level Chicago Center
09:37PM 40.8950 -90.8689 65° Northeast 130 150 7,600 600 Climbing Chicago Center
09:38PM 40.9103 -90.8217 67° East 138 159 8,200 540 Climbing Chicago Center
09:39PM 40.9261 -90.7750 66° East 139 160 8,800 420 Climbing Chicago Center
09:40PM 40.9433 -90.7250 65° Northeast 149 171 9,100 120 Climbing Chicago Center
09:41PM 40.9661 -90.6600 65° Northeast 163 188 9,100  Level Chicago Center
09:42PM 40.9831 -90.6019 69° East 170 196 9,100  Level Chicago Center
09:43PM 41.0019 -90.5461 66° East 167 192 9,100  Level Chicago Center
09:44PM 41.0200 -90.4903 67° East 166 191 9,100  Level Chicago Center
09:45PM 41.0383 -90.4333 67° East 168 193 9,100 -60 Level Chicago Center
09:46PM 41.0558 -90.3767 68° East 166 191 9,000 -60 Descending Chicago Center
09:47PM 41.0747 -90.3208 66° East 166 191 9,000  Level Chicago Center
09:48PM 41.0939 -90.2644 66° East 167 192 9,000  Level Chicago Center
09:49PM 41.1169 -90.1972 66° East 167 192 9,000  Level Chicago Center
09:50PM 41.1347 -90.1428 67° East 164 189 9,100  Climbing Chicago Center
09:51PM 41.1536 -90.0856 66° East 166 191 9,100  Level Chicago Center
09:52PM 41.1722 -90.0300 66° East 165 190 9,100  Level Chicago Center
09:53PM 41.1908 -89.9725 67° East 168 193 9,100  Level Chicago Center
09:54PM 41.2106 -89.9167 65° Northeast 167 192 9,100  Level Chicago Center
09:55PM 41.2294 -89.8603 66° East 167 192 9,100  Level Chicago Center
09:56PM 41.2486 -89.8039 66° East 167 192 9,100  Level Chicago Center
09:58PM 41.2706 -89.7369 66° East 165 190 9,100  Level Chicago Center
09:59PM 41.2872 -89.6797 69° East 166 191 9,100 -60 Level Chicago Center
10:00PM 41.3044 -89.6225 68° East 166 191 9,000 -60 Descending Chicago Center
10:01PM 41.3211 -89.5653 69° East 166 191 9,000  Level Chicago Center
10:02PM 41.3356 -89.5089 71° East 164 189 9,100  Climbing Chicago Center
10:03PM 41.3519 -89.4550 68° East 159 183 9,100  Level Chicago Center
10:04PM 41.3708 -89.4017 65° Northeast 159 183 9,100  Level Chicago Center
10:05PM 41.3856 -89.3494 69° East 153 176 9,100 -60 Level Chicago Center
10:06PM 41.4053 -89.2869 67° East 154 177 9,000  Descending Chicago Center
10:07PM 41.4200 -89.2353 69° East 151 174 9,100  Climbing Chicago Center
10:08PM 41.4336 -89.1906 68° East 150 173 9,100  Level Chicago Center
10:09PM 41.4544 -89.1306 65° Northeast 151 174 9,100  Level Chicago Center
10:10PM 41.4706 -89.0781 68° East 153 176 9,100  Level Chicago Center
10:11PM 41.4861 -89.0261 68° East 152 175 9,100  Level Chicago Center
10:12PM 41.5028 -88.9739 67° East 154 177 9,100  Level Chicago Center
10:13PM 41.5192 -88.9228 67° East 152 175 9,100 -60 Level Chicago Center
10:14PM 41.5344 -88.8694 69° East 155 178 9,000 -240 Descending Chicago Center
10:15PM 41.5500 -88.8156 69° East 156 180 8,700 -360 Descending Chicago Center
10:16PM 41.5703 -88.7519 67° East 156 180 8,300 -300 Descending Chicago Center
10:17PM 41.5875 -88.7006 66° East 154 177 8,100 -120 Descending Chicago Center
10:18PM 41.6033 -88.6486 68° East 152 175 8,100  Level Chicago Center
10:19PM 41.6214 -88.6006 63° Northeast 148 170 8,100  Level Chicago Center
10:20PM 41.6436 -88.5561 56° Northeast 144 166 8,100  Level Chicago Center
10:21PM 41.6492 -88.4994 83° East 151 174 8,100  Level Chicago Center
10:22PM 41.6583 -88.4436 78° East 154 177 8,100  Level Chicago Center
10:23PM 41.6703 -88.3778 76° East 153 176 8,100  Level Chicago Center
10:24PM 41.6800 -88.3225 77° East 153 176 8,100 -300 Level Chicago Center
10:25PM 41.6806 -88.2631 89° East 158 182 7,600 -540 Descending Chicago Center
10:26PM 41.6906 -88.2078 76° East 156 180 7,000 -540 Descending Chicago Center
10:27PM 41.7269 -88.1936 16° North 142 163 6,500 -540 Descending Chicago Center
10:28PM 41.7658 -88.2050 348° North 142 163 5,900 -600 Descending Chicago Center
10:29PM 41.7817 -88.1583 66° East 142 163 5,400 -420 Descending Chicago Center
10:30PM 41.7925 -88.1047 75° East 146 168 5,100 -660 Descending Chicago Center
10:31PM 41.8228 -88.0508 53° Northeast 158 182 4,100 -900 Descending Chicago Center
10:32PM 41.8586 -88.0122 39° Northeast 163 188 3,300 -900 Descending Chicago Center
10:33PM 41.8886 -87.9764 42° Northeast 157 181 2,300 -1,020 Descending Chicago Center
10:34PM 41.9000 -87.9500 60° Northeast 141 162 1,700 -840 Descending Chicago TRACON
10:35PM 41.9333 -87.9167 37° Northeast 144 166 1,000 -720 Descending Chicago TRACON
10:37PM 41.9667 -87.9000 41° Northeast  Level FlightAware Approximate